sensor_id;sensor_type;location;lat;lon;timestamp;P1;durP1;ratioP1;P2;durP2;ratioP2
52438;SDS011;73188;52.948;6.012;2023-12-29T00:03:46;28.00;;;3.65;;
52438;SDS011;73188;52.948;6.012;2023-12-29T00:14:12;31.83;;;3.92;;
52438;SDS011;73188;52.948;6.012;2023-12-29T00:24:38;24.13;;;2.88;;
52438;SDS011;73188;52.948;6.012;2023-12-29T00:35:04;18.33;;;3.90;;
52438;SDS011;73188;52.948;6.012;2023-12-29T00:45:31;26.85;;;4.00;;
52438;SDS011;73188;52.948;6.012;2023-12-29T00:56:01;34.20;;;4.45;;
52438;SDS011;73188;52.948;6.012;2023-12-29T01:06:27;25.17;;;4.25;;
52438;SDS011;73188;52.948;6.012;2023-12-29T01:16:53;31.75;;;4.97;;
52438;SDS011;73188;52.948;6.012;2023-12-29T01:27:18;35.28;;;5.22;;
52438;SDS011;73188;52.948;6.012;2023-12-29T01:37:44;51.33;;;5.30;;
52438;SDS011;73188;52.948;6.012;2023-12-29T01:48:10;25.13;;;3.80;;
52438;SDS011;73188;52.948;6.012;2023-12-29T01:58:36;31.45;;;4.68;;
52438;SDS011;73188;52.948;6.012;2023-12-29T02:09:02;40.80;;;5.43;;
52438;SDS011;73188;52.948;6.012;2023-12-29T02:19:45;30.90;;;4.25;;
52438;SDS011;73188;52.948;6.012;2023-12-29T02:30:25;31.58;;;4.75;;
52438;SDS011;73188;52.948;6.012;2023-12-29T02:41:03;32.17;;;4.45;;
52438;SDS011;73188;52.948;6.012;2023-12-29T02:51:29;39.70;;;5.68;;
52438;SDS011;73188;52.948;6.012;2023-12-29T03:01:55;45.10;;;5.22;;
52438;SDS011;73188;52.948;6.012;2023-12-29T03:12:21;43.92;;;4.72;;
52438;SDS011;73188;52.948;6.012;2023-12-29T03:22:46;37.00;;;5.07;;
52438;SDS011;73188;52.948;6.012;2023-12-29T03:33:12;46.38;;;6.82;;
52438;SDS011;73188;52.948;6.012;2023-12-29T03:43:40;38.35;;;6.10;;
52438;SDS011;73188;52.948;6.012;2023-12-29T03:54:06;48.60;;;5.78;;
52438;SDS011;73188;52.948;6.012;2023-12-29T04:04:31;49.03;;;5.85;;
52438;SDS011;73188;52.948;6.012;2023-12-29T04:14:57;34.65;;;5.18;;
52438;SDS011;73188;52.948;6.012;2023-12-29T04:25:23;55.22;;;6.25;;
52438;SDS011;73188;52.948;6.012;2023-12-29T04:35:49;64.25;;;7.22;;
52438;SDS011;73188;52.948;6.012;2023-12-29T04:46:14;48.00;;;5.57;;
52438;SDS011;73188;52.948;6.012;2023-12-29T04:56:40;32.97;;;4.30;;
52438;SDS011;73188;52.948;6.012;2023-12-29T05:07:08;29.58;;;5.95;;
52438;SDS011;73188;52.948;6.012;2023-12-29T05:17:34;45.15;;;4.85;;
52438;SDS011;73188;52.948;6.012;2023-12-29T05:28:00;48.75;;;6.72;;
52438;SDS011;73188;52.948;6.012;2023-12-29T05:38:26;43.53;;;5.65;;
52438;SDS011;73188;52.948;6.012;2023-12-29T05:48:52;39.38;;;4.55;;
52438;SDS011;73188;52.948;6.012;2023-12-29T05:59:18;34.08;;;4.82;;
52438;SDS011;73188;52.948;6.012;2023-12-29T06:09:44;39.13;;;4.63;;
52438;SDS011;73188;52.948;6.012;2023-12-29T06:20:10;36.45;;;4.90;;
52438;SDS011;73188;52.948;6.012;2023-12-29T06:30:36;32.67;;;4.90;;
52438;SDS011;73188;52.948;6.012;2023-12-29T06:41:02;43.85;;;5.47;;
52438;SDS011;73188;52.948;6.012;2023-12-29T06:51:29;30.65;;;4.90;;
52438;SDS011;73188;52.948;6.012;2023-12-29T07:01:55;48.53;;;5.75;;
52438;SDS011;73188;52.948;6.012;2023-12-29T07:12:21;53.17;;;6.13;;
52438;SDS011;73188;52.948;6.012;2023-12-29T07:22:47;48.83;;;5.63;;
52438;SDS011;73188;52.948;6.012;2023-12-29T07:33:13;45.47;;;6.13;;
52438;SDS011;73188;52.948;6.012;2023-12-29T07:43:39;48.65;;;6.00;;
52438;SDS011;73188;52.948;6.012;2023-12-29T07:54:05;53.60;;;6.75;;
52438;SDS011;73188;52.948;6.012;2023-12-29T08:04:30;74.07;;;7.97;;
52438;SDS011;73188;52.948;6.012;2023-12-29T08:14:56;45.33;;;5.72;;
52438;SDS011;73188;52.948;6.012;2023-12-29T08:25:22;55.10;;;6.30;;
52438;SDS011;73188;52.948;6.012;2023-12-29T08:35:48;41.28;;;5.50;;
52438;SDS011;73188;52.948;6.012;2023-12-29T08:46:14;53.60;;;6.18;;
52438;SDS011;73188;52.948;6.012;2023-12-29T08:56:40;46.17;;;5.95;;
52438;SDS011;73188;52.948;6.012;2023-12-29T09:07:05;44.08;;;5.72;;
52438;SDS011;73188;52.948;6.012;2023-12-29T09:17:31;45.25;;;6.13;;
52438;SDS011;73188;52.948;6.012;2023-12-29T09:27:58;51.08;;;6.15;;
52438;SDS011;73188;52.948;6.012;2023-12-29T09:38:24;68.55;;;6.68;;
52438;SDS011;73188;52.948;6.012;2023-12-29T09:48:50;50.90;;;5.78;;
52438;SDS011;73188;52.948;6.012;2023-12-29T09:59:18;47.38;;;5.78;;
52438;SDS011;73188;52.948;6.012;2023-12-29T10:09:45;24.25;;;4.13;;
52438;SDS011;73188;52.948;6.012;2023-12-29T10:20:25;27.67;;;3.78;;
52438;SDS011;73188;52.948;6.012;2023-12-29T10:31:08;30.80;;;4.05;;
52438;SDS011;73188;52.948;6.012;2023-12-29T10:41:40;31.65;;;4.45;;
52438;SDS011;73188;52.948;6.012;2023-12-29T10:52:15;29.35;;;4.38;;
52438;SDS011;73188;52.948;6.012;2023-12-29T11:02:41;27.83;;;3.83;;
52438;SDS011;73188;52.948;6.012;2023-12-29T11:13:07;39.25;;;8.95;;
52438;SDS011;73188;52.948;6.012;2023-12-29T11:23:36;27.52;;;6.60;;
52438;SDS011;73188;52.948;6.012;2023-12-29T11:34:25;56.45;;;14.25;;
52438;SDS011;73188;52.948;6.012;2023-12-29T11:55:56;44.28;;;8.93;;
52438;SDS011;73188;52.948;6.012;2023-12-29T12:06:36;26.20;;;4.78;;
52438;SDS011;73188;52.948;6.012;2023-12-29T12:17:04;23.17;;;3.47;;
52438;SDS011;73188;52.948;6.012;2023-12-29T12:27:30;25.02;;;3.38;;
52438;SDS011;73188;52.948;6.012;2023-12-29T12:38:06;30.98;;;4.00;;
52438;SDS011;73188;52.948;6.012;2023-12-29T12:48:43;27.83;;;4.13;;
52438;SDS011;73188;52.948;6.012;2023-12-29T12:59:11;25.23;;;3.17;;
52438;SDS011;73188;52.948;6.012;2023-12-29T13:09:38;15.30;;;2.65;;
52438;SDS011;73188;52.948;6.012;2023-12-29T13:20:04;22.48;;;3.55;;
52438;SDS011;73188;52.948;6.012;2023-12-29T13:30:31;27.25;;;3.55;;
52438;SDS011;73188;52.948;6.012;2023-12-29T13:40:59;28.65;;;4.28;;
52438;SDS011;73188;52.948;6.012;2023-12-29T13:51:37;29.17;;;3.55;;
52438;SDS011;73188;52.948;6.012;2023-12-29T14:12:51;32.30;;;3.72;;
52438;SDS011;73188;52.948;6.012;2023-12-29T14:23:17;28.90;;;3.45;;
52438;SDS011;73188;52.948;6.012;2023-12-29T14:33:44;22.38;;;3.28;;
52438;SDS011;73188;52.948;6.012;2023-12-29T14:44:10;22.20;;;3.15;;
52438;SDS011;73188;52.948;6.012;2023-12-29T14:54:37;21.48;;;2.97;;
52438;SDS011;73188;52.948;6.012;2023-12-29T15:05:05;26.35;;;3.13;;
52438;SDS011;73188;52.948;6.012;2023-12-29T15:15:31;18.90;;;3.13;;
52438;SDS011;73188;52.948;6.012;2023-12-29T15:25:57;19.40;;;2.78;;
52438;SDS011;73188;52.948;6.012;2023-12-29T15:36:23;17.05;;;3.13;;
52438;SDS011;73188;52.948;6.012;2023-12-29T15:46:49;28.00;;;2.78;;
52438;SDS011;73188;52.948;6.012;2023-12-29T15:57:17;26.58;;;2.83;;
52438;SDS011;73188;52.948;6.012;2023-12-29T16:07:43;18.77;;;3.10;;
52438;SDS011;73188;52.948;6.012;2023-12-29T16:18:09;22.00;;;3.70;;
52438;SDS011;73188;52.948;6.012;2023-12-29T16:28:38;14.68;;;1.92;;
52438;SDS011;73188;52.948;6.012;2023-12-29T16:39:05;8.00;;;1.70;;
52438;SDS011;73188;52.948;6.012;2023-12-29T16:49:31;9.70;;;1.70;;
52438;SDS011;73188;52.948;6.012;2023-12-29T16:59:57;7.35;;;1.58;;
52438;SDS011;73188;52.948;6.012;2023-12-29T17:10:23;7.18;;;1.20;;
52438;SDS011;73188;52.948;6.012;2023-12-29T17:20:49;4.80;;;1.10;;
52438;SDS011;73188;52.948;6.012;2023-12-29T17:31:15;7.45;;;1.60;;
52438;SDS011;73188;52.948;6.012;2023-12-29T17:41:42;13.55;;;3.05;;
52438;SDS011;73188;52.948;6.012;2023-12-29T17:52:08;7.15;;;1.67;;
52438;SDS011;73188;52.948;6.012;2023-12-29T18:02:34;11.23;;;1.70;;
52438;SDS011;73188;52.948;6.012;2023-12-29T18:13:00;11.00;;;1.83;;
52438;SDS011;73188;52.948;6.012;2023-12-29T18:23:26;11.65;;;1.60;;
52438;SDS011;73188;52.948;6.012;2023-12-29T18:33:51;7.20;;;1.33;;
52438;SDS011;73188;52.948;6.012;2023-12-29T18:44:18;14.55;;;1.90;;
52438;SDS011;73188;52.948;6.012;2023-12-29T18:54:46;9.93;;;1.48;;
52438;SDS011;73188;52.948;6.012;2023-12-29T19:05:14;5.90;;;1.40;;
52438;SDS011;73188;52.948;6.012;2023-12-29T19:15:40;11.30;;;1.88;;
52438;SDS011;73188;52.948;6.012;2023-12-29T19:26:06;12.35;;;1.55;;
52438;SDS011;73188;52.948;6.012;2023-12-29T19:36:32;7.28;;;1.40;;
52438;SDS011;73188;52.948;6.012;2023-12-29T19:46:58;10.95;;;1.60;;
52438;SDS011;73188;52.948;6.012;2023-12-29T19:57:24;7.82;;;1.58;;
52438;SDS011;73188;52.948;6.012;2023-12-29T20:07:49;5.32;;;1.60;;
52438;SDS011;73188;52.948;6.012;2023-12-29T20:18:16;10.30;;;1.80;;
52438;SDS011;73188;52.948;6.012;2023-12-29T20:28:41;12.63;;;1.88;;
52438;SDS011;73188;52.948;6.012;2023-12-29T20:39:07;10.13;;;1.67;;
52438;SDS011;73188;52.948;6.012;2023-12-29T20:49:34;16.10;;;2.67;;
52438;SDS011;73188;52.948;6.012;2023-12-29T21:00:02;11.57;;;2.28;;
52438;SDS011;73188;52.948;6.012;2023-12-29T21:10:28;10.02;;;2.22;;
52438;SDS011;73188;52.948;6.012;2023-12-29T21:20:54;20.63;;;3.55;;
52438;SDS011;73188;52.948;6.012;2023-12-29T21:31:20;14.57;;;2.10;;
52438;SDS011;73188;52.948;6.012;2023-12-29T21:41:46;9.63;;;1.60;;
52438;SDS011;73188;52.948;6.012;2023-12-29T21:52:12;7.63;;;1.10;;
52438;SDS011;73188;52.948;6.012;2023-12-29T22:02:39;6.18;;;1.52;;
52438;SDS011;73188;52.948;6.012;2023-12-29T22:13:05;10.40;;;1.63;;
52438;SDS011;73188;52.948;6.012;2023-12-29T22:23:31;17.48;;;2.20;;
52438;SDS011;73188;52.948;6.012;2023-12-29T22:33:57;15.00;;;2.08;;
52438;SDS011;73188;52.948;6.012;2023-12-29T22:44:23;17.42;;;2.22;;
52438;SDS011;73188;52.948;6.012;2023-12-29T22:54:49;18.08;;;3.00;;
52438;SDS011;73188;52.948;6.012;2023-12-29T23:05:14;23.15;;;2.53;;
52438;SDS011;73188;52.948;6.012;2023-12-29T23:15:41;16.92;;;2.40;;
52438;SDS011;73188;52.948;6.012;2023-12-29T23:26:09;8.65;;;1.70;;
52438;SDS011;73188;52.948;6.012;2023-12-29T23:36:36;13.65;;;1.70;;
52438;SDS011;73188;52.948;6.012;2023-12-29T23:47:02;12.02;;;1.92;;
52438;SDS011;73188;52.948;6.012;2023-12-29T23:57:28;11.95;;;1.73;;
